sensor_id;sensor_type;location;lat;lon;timestamp;P1;durP1;ratioP1;P2;durP2;ratioP2
8584;SDS011;7180;52.742;11.420;2022-11-20T00:01:05;18.40;;;16.57;;
8584;SDS011;7180;52.742;11.420;2022-11-20T00:03:31;18.70;;;16.90;;
8584;SDS011;7180;52.742;11.420;2022-11-20T00:06:03;18.43;;;16.63;;
8584;SDS011;7180;52.742;11.420;2022-11-20T00:08:29;17.17;;;15.60;;
8584;SDS011;7180;52.742;11.420;2022-11-20T00:10:54;17.87;;;16.10;;
8584;SDS011;7180;52.742;11.420;2022-11-20T00:13:19;18.40;;;16.70;;
8584;SDS011;7180;52.742;11.420;2022-11-20T00:15:45;19.13;;;17.20;;
8584;SDS011;7180;52.742;11.420;2022-11-20T00:18:10;19.30;;;17.50;;
8584;SDS011;7180;52.742;11.420;2022-11-20T00:20:35;17.90;;;16.07;;
8584;SDS011;7180;52.742;11.420;2022-11-20T00:23:00;18.93;;;17.17;;
8584;SDS011;7180;52.742;11.420;2022-11-20T00:25:25;20.07;;;17.83;;
8584;SDS011;7180;52.742;11.420;2022-11-20T00:27:50;23.17;;;18.90;;
8584;SDS011;7180;52.742;11.420;2022-11-20T00:30:16;20.30;;;18.17;;
8584;SDS011;7180;52.742;11.420;2022-11-20T00:32:41;18.87;;;16.93;;
8584;SDS011;7180;52.742;11.420;2022-11-20T00:35:06;21.27;;;18.43;;
8584;SDS011;7180;52.742;11.420;2022-11-20T00:37:31;21.27;;;18.37;;
8584;SDS011;7180;52.742;11.420;2022-11-20T00:39:57;20.07;;;17.83;;
8584;SDS011;7180;52.742;11.420;2022-11-20T00:42:22;18.83;;;17.00;;
8584;SDS011;7180;52.742;11.420;2022-11-20T00:44:47;17.63;;;15.87;;
8584;SDS011;7180;52.742;11.420;2022-11-20T00:47:12;17.83;;;16.20;;
8584;SDS011;7180;52.742;11.420;2022-11-20T00:49:37;19.10;;;17.30;;
8584;SDS011;7180;52.742;11.420;2022-11-20T00:52:03;18.47;;;16.77;;
8584;SDS011;7180;52.742;11.420;2022-11-20T00:54:28;18.77;;;16.97;;
8584;SDS011;7180;52.742;11.420;2022-11-20T00:56:53;19.60;;;17.80;;
8584;SDS011;7180;52.742;11.420;2022-11-20T00:59:18;19.93;;;18.10;;
8584;SDS011;7180;52.742;11.420;2022-11-20T01:01:43;20.07;;;18.17;;
8584;SDS011;7180;52.742;11.420;2022-11-20T01:04:09;19.47;;;17.67;;
8584;SDS011;7180;52.742;11.420;2022-11-20T01:06:35;18.53;;;16.73;;
8584;SDS011;7180;52.742;11.420;2022-11-20T01:09:05;19.20;;;17.43;;
8584;SDS011;7180;52.742;11.420;2022-11-20T01:11:34;18.37;;;16.67;;
8584;SDS011;7180;52.742;11.420;2022-11-20T01:14:00;18.80;;;16.97;;
8584;SDS011;7180;52.742;11.420;2022-11-20T01:16:28;18.70;;;16.90;;
8584;SDS011;7180;52.742;11.420;2022-11-20T01:18:54;18.27;;;16.50;;
8584;SDS011;7180;52.742;11.420;2022-11-20T01:21:24;18.07;;;16.37;;
8584;SDS011;7180;52.742;11.420;2022-11-20T01:23:50;18.23;;;16.57;;
8584;SDS011;7180;52.742;11.420;2022-11-20T01:26:16;19.27;;;17.37;;
8584;SDS011;7180;52.742;11.420;2022-11-20T01:28:42;18.90;;;17.27;;
8584;SDS011;7180;52.742;11.420;2022-11-20T01:31:50;18.27;;;16.37;;
8584;SDS011;7180;52.742;11.420;2022-11-20T01:33:57;18.90;;;17.00;;
8584;SDS011;7180;52.742;11.420;2022-11-20T01:36:23;18.50;;;16.70;;
8584;SDS011;7180;52.742;11.420;2022-11-20T01:38:55;17.87;;;16.27;;
8584;SDS011;7180;52.742;11.420;2022-11-20T01:41:21;18.57;;;16.77;;
8584;SDS011;7180;52.742;11.420;2022-11-20T01:44:05;18.57;;;16.87;;
8584;SDS011;7180;52.742;11.420;2022-11-20T01:46:32;17.40;;;15.70;;
8584;SDS011;7180;52.742;11.420;2022-11-20T01:49:02;19.17;;;17.30;;
8584;SDS011;7180;52.742;11.420;2022-11-20T01:51:29;18.63;;;16.83;;
8584;SDS011;7180;52.742;11.420;2022-11-20T01:53:58;19.33;;;17.50;;
8584;SDS011;7180;52.742;11.420;2022-11-20T01:56:25;18.87;;;17.17;;
8584;SDS011;7180;52.742;11.420;2022-11-20T01:58:52;19.73;;;16.63;;
8584;SDS011;7180;52.742;11.420;2022-11-20T02:01:19;19.30;;;17.40;;
8584;SDS011;7180;52.742;11.420;2022-11-20T02:03:45;18.73;;;17.00;;
8584;SDS011;7180;52.742;11.420;2022-11-20T02:06:19;18.53;;;16.73;;
8584;SDS011;7180;52.742;11.420;2022-11-20T02:08:44;18.47;;;16.67;;
8584;SDS011;7180;52.742;11.420;2022-11-20T02:11:09;19.67;;;17.77;;
8584;SDS011;7180;52.742;11.420;2022-11-20T02:13:35;20.03;;;18.03;;
8584;SDS011;7180;52.742;11.420;2022-11-20T02:18:40;19.13;;;17.33;;
8584;SDS011;7180;52.742;11.420;2022-11-20T02:21:07;18.63;;;16.90;;
8584;SDS011;7180;52.742;11.420;2022-11-20T02:26:18;19.00;;;17.07;;
8584;SDS011;7180;52.742;11.420;2022-11-20T02:28:44;18.33;;;16.53;;
8584;SDS011;7180;52.742;11.420;2022-11-20T02:31:09;18.27;;;16.47;;
8584;SDS011;7180;52.742;11.420;2022-11-20T02:33:35;19.90;;;17.87;;
8584;SDS011;7180;52.742;11.420;2022-11-20T02:36:00;18.97;;;17.17;;
8584;SDS011;7180;52.742;11.420;2022-11-20T02:38:25;19.83;;;17.73;;
8584;SDS011;7180;52.742;11.420;2022-11-20T02:40:50;20.20;;;18.30;;
8584;SDS011;7180;52.742;11.420;2022-11-20T02:43:15;19.47;;;17.63;;
8584;SDS011;7180;52.742;11.420;2022-11-20T02:45:41;20.50;;;18.50;;
8584;SDS011;7180;52.742;11.420;2022-11-20T02:48:06;19.93;;;18.07;;
8584;SDS011;7180;52.742;11.420;2022-11-20T02:50:32;18.83;;;17.03;;
8584;SDS011;7180;52.742;11.420;2022-11-20T02:52:57;19.33;;;17.33;;
8584;SDS011;7180;52.742;11.420;2022-11-20T02:55:22;19.40;;;17.50;;
8584;SDS011;7180;52.742;11.420;2022-11-20T02:57:47;19.43;;;17.57;;
8584;SDS011;7180;52.742;11.420;2022-11-20T03:00:13;19.53;;;17.53;;
8584;SDS011;7180;52.742;11.420;2022-11-20T03:02:38;19.80;;;17.90;;
8584;SDS011;7180;52.742;11.420;2022-11-20T03:05:03;20.20;;;18.20;;
8584;SDS011;7180;52.742;11.420;2022-11-20T03:07:29;20.03;;;17.93;;
8584;SDS011;7180;52.742;11.420;2022-11-20T03:09:54;19.97;;;18.03;;
8584;SDS011;7180;52.742;11.420;2022-11-20T03:12:19;19.23;;;17.27;;
8584;SDS011;7180;52.742;11.420;2022-11-20T03:14:44;20.03;;;18.03;;
8584;SDS011;7180;52.742;11.420;2022-11-20T03:17:09;20.60;;;18.50;;
8584;SDS011;7180;52.742;11.420;2022-11-20T03:19:35;20.97;;;18.97;;
8584;SDS011;7180;52.742;11.420;2022-11-20T03:22:00;20.27;;;18.33;;
8584;SDS011;7180;52.742;11.420;2022-11-20T03:24:26;21.03;;;19.03;;
8584;SDS011;7180;52.742;11.420;2022-11-20T03:26:51;21.60;;;19.33;;
8584;SDS011;7180;52.742;11.420;2022-11-20T03:29:16;21.40;;;19.20;;
8584;SDS011;7180;52.742;11.420;2022-11-20T03:31:41;20.77;;;18.77;;
8584;SDS011;7180;52.742;11.420;2022-11-20T03:34:08;21.40;;;19.30;;
8584;SDS011;7180;52.742;11.420;2022-11-20T03:36:33;20.17;;;18.20;;
8584;SDS011;7180;52.742;11.420;2022-11-20T03:38:59;21.47;;;19.37;;
8584;SDS011;7180;52.742;11.420;2022-11-20T03:41:28;21.63;;;19.43;;
8584;SDS011;7180;52.742;11.420;2022-11-20T03:43:57;21.33;;;19.23;;
8584;SDS011;7180;52.742;11.420;2022-11-20T03:46:23;21.23;;;19.10;;
8584;SDS011;7180;52.742;11.420;2022-11-20T03:48:49;20.83;;;18.83;;
8584;SDS011;7180;52.742;11.420;2022-11-20T03:51:35;22.57;;;20.27;;
8584;SDS011;7180;52.742;11.420;2022-11-20T03:54:00;20.67;;;18.67;;
8584;SDS011;7180;52.742;11.420;2022-11-20T03:56:27;20.63;;;18.53;;
8584;SDS011;7180;52.742;11.420;2022-11-20T03:58:53;20.70;;;18.60;;
8584;SDS011;7180;52.742;11.420;2022-11-20T04:01:22;19.97;;;18.03;;
8584;SDS011;7180;52.742;11.420;2022-11-20T04:03:47;20.77;;;18.67;;
8584;SDS011;7180;52.742;11.420;2022-11-20T04:06:20;19.67;;;17.67;;
8584;SDS011;7180;52.742;11.420;2022-11-20T04:08:45;21.87;;;19.67;;
8584;SDS011;7180;52.742;11.420;2022-11-20T04:11:18;20.53;;;18.43;;
8584;SDS011;7180;52.742;11.420;2022-11-20T04:13:47;20.73;;;18.73;;
8584;SDS011;7180;52.742;11.420;2022-11-20T04:16:13;22.13;;;20.00;;
8584;SDS011;7180;52.742;11.420;2022-11-20T04:18:38;21.40;;;19.30;;
8584;SDS011;7180;52.742;11.420;2022-11-20T04:21:04;21.30;;;19.13;;
8584;SDS011;7180;52.742;11.420;2022-11-20T04:23:29;21.23;;;19.03;;
8584;SDS011;7180;52.742;11.420;2022-11-20T04:25:54;20.40;;;18.30;;
8584;SDS011;7180;52.742;11.420;2022-11-20T04:28:25;21.40;;;19.30;;
8584;SDS011;7180;52.742;11.420;2022-11-20T04:30:50;21.33;;;19.17;;
8584;SDS011;7180;52.742;11.420;2022-11-20T04:33:15;21.47;;;19.23;;
8584;SDS011;7180;52.742;11.420;2022-11-20T04:35:40;21.70;;;19.60;;
8584;SDS011;7180;52.742;11.420;2022-11-20T04:38:05;20.47;;;18.47;;
8584;SDS011;7180;52.742;11.420;2022-11-20T04:40:31;20.30;;;18.27;;
8584;SDS011;7180;52.742;11.420;2022-11-20T04:42:56;20.50;;;18.43;;
8584;SDS011;7180;52.742;11.420;2022-11-20T04:45:22;22.83;;;19.77;;
8584;SDS011;7180;52.742;11.420;2022-11-20T04:47:47;22.07;;;19.77;;
8584;SDS011;7180;52.742;11.420;2022-11-20T04:50:12;21.63;;;19.43;;
8584;SDS011;7180;52.742;11.420;2022-11-20T04:52:37;23.00;;;20.47;;
8584;SDS011;7180;52.742;11.420;2022-11-20T04:55:02;22.53;;;19.23;;
8584;SDS011;7180;52.742;11.420;2022-11-20T04:57:28;20.93;;;18.83;;
8584;SDS011;7180;52.742;11.420;2022-11-20T04:59:53;22.87;;;20.53;;
8584;SDS011;7180;52.742;11.420;2022-11-20T05:02:18;23.17;;;20.60;;
8584;SDS011;7180;52.742;11.420;2022-11-20T05:04:43;25.20;;;20.10;;
8584;SDS011;7180;52.742;11.420;2022-11-20T05:07:09;22.20;;;19.83;;
8584;SDS011;7180;52.742;11.420;2022-11-20T05:09:34;23.03;;;20.27;;
8584;SDS011;7180;52.742;11.420;2022-11-20T05:11:59;23.10;;;20.20;;
8584;SDS011;7180;52.742;11.420;2022-11-20T05:14:24;22.17;;;19.83;;
8584;SDS011;7180;52.742;11.420;2022-11-20T05:16:49;23.83;;;20.60;;
8584;SDS011;7180;52.742;11.420;2022-11-20T05:19:14;23.80;;;21.30;;
8584;SDS011;7180;52.742;11.420;2022-11-20T05:21:40;24.57;;;20.20;;
8584;SDS011;7180;52.742;11.420;2022-11-20T05:24:05;22.30;;;19.70;;
8584;SDS011;7180;52.742;11.420;2022-11-20T05:26:30;23.70;;;20.80;;
8584;SDS011;7180;52.742;11.420;2022-11-20T05:28:56;22.13;;;19.93;;
8584;SDS011;7180;52.742;11.420;2022-11-20T05:31:22;21.57;;;19.37;;
8584;SDS011;7180;52.742;11.420;2022-11-20T05:33:47;21.47;;;19.23;;
8584;SDS011;7180;52.742;11.420;2022-11-20T05:36:13;20.60;;;18.60;;
8584;SDS011;7180;52.742;11.420;2022-11-20T05:38:39;21.80;;;18.63;;
8584;SDS011;7180;52.742;11.420;2022-11-20T05:43:31;19.90;;;17.97;;
8584;SDS011;7180;52.742;11.420;2022-11-20T05:45:56;21.13;;;19.03;;
8584;SDS011;7180;52.742;11.420;2022-11-20T05:48:21;20.73;;;18.53;;
8584;SDS011;7180;52.742;11.420;2022-11-20T05:50:47;20.40;;;18.30;;
8584;SDS011;7180;52.742;11.420;2022-11-20T05:53:12;21.23;;;19.00;;
8584;SDS011;7180;52.742;11.420;2022-11-20T05:55:38;20.67;;;18.47;;
8584;SDS011;7180;52.742;11.420;2022-11-20T05:58:03;20.73;;;18.67;;
8584;SDS011;7180;52.742;11.420;2022-11-20T06:00:28;20.63;;;18.53;;
8584;SDS011;7180;52.742;11.420;2022-11-20T06:02:53;20.17;;;18.17;;
8584;SDS011;7180;52.742;11.420;2022-11-20T06:05:18;21.40;;;19.10;;
8584;SDS011;7180;52.742;11.420;2022-11-20T06:07:43;20.57;;;18.57;;
8584;SDS011;7180;52.742;11.420;2022-11-20T06:10:09;20.23;;;18.07;;
8584;SDS011;7180;52.742;11.420;2022-11-20T06:12:34;20.80;;;18.60;;
8584;SDS011;7180;52.742;11.420;2022-11-20T06:15:00;20.73;;;18.67;;
8584;SDS011;7180;52.742;11.420;2022-11-20T06:17:25;20.83;;;18.73;;
8584;SDS011;7180;52.742;11.420;2022-11-20T06:19:51;21.63;;;19.43;;
8584;SDS011;7180;52.742;11.420;2022-11-20T06:22:16;20.27;;;18.13;;
8584;SDS011;7180;52.742;11.420;2022-11-20T06:24:41;20.50;;;18.40;;
8584;SDS011;7180;52.742;11.420;2022-11-20T06:27:06;20.70;;;18.50;;
8584;SDS011;7180;52.742;11.420;2022-11-20T06:29:31;20.83;;;18.60;;
8584;SDS011;7180;52.742;11.420;2022-11-20T06:31:56;21.43;;;18.73;;
8584;SDS011;7180;52.742;11.420;2022-11-20T06:34:22;20.20;;;18.20;;
8584;SDS011;7180;52.742;11.420;2022-11-20T06:36:47;20.97;;;18.70;;
8584;SDS011;7180;52.742;11.420;2022-11-20T06:39:12;21.27;;;18.70;;
8584;SDS011;7180;52.742;11.420;2022-11-20T06:41:37;21.07;;;18.87;;
8584;SDS011;7180;52.742;11.420;2022-11-20T06:44:03;21.10;;;18.93;;
8584;SDS011;7180;52.742;11.420;2022-11-20T06:46:28;22.23;;;19.63;;
8584;SDS011;7180;52.742;11.420;2022-11-20T06:48:54;22.77;;;20.37;;
8584;SDS011;7180;52.742;11.420;2022-11-20T06:51:19;20.47;;;18.27;;
8584;SDS011;7180;52.742;11.420;2022-11-20T06:53:46;22.57;;;19.27;;
8584;SDS011;7180;52.742;11.420;2022-11-20T06:56:11;20.07;;;18.03;;
8584;SDS011;7180;52.742;11.420;2022-11-20T06:58:36;20.40;;;18.33;;
8584;SDS011;7180;52.742;11.420;2022-11-20T07:01:05;21.17;;;18.80;;
8584;SDS011;7180;52.742;11.420;2022-11-20T07:03:31;20.90;;;18.80;;
8584;SDS011;7180;52.742;11.420;2022-11-20T07:05:57;22.13;;;19.17;;
8584;SDS011;7180;52.742;11.420;2022-11-20T07:08:22;21.23;;;18.93;;
8584;SDS011;7180;52.742;11.420;2022-11-20T07:10:47;20.97;;;18.80;;
8584;SDS011;7180;52.742;11.420;2022-11-20T07:13:13;21.80;;;19.50;;
8584;SDS011;7180;52.742;11.420;2022-11-20T07:15:38;21.87;;;19.63;;
8584;SDS011;7180;52.742;11.420;2022-11-20T07:18:03;21.60;;;19.47;;
8584;SDS011;7180;52.742;11.420;2022-11-20T07:20:29;20.50;;;18.30;;
8584;SDS011;7180;52.742;11.420;2022-11-20T07:22:54;21.57;;;19.27;;
8584;SDS011;7180;52.742;11.420;2022-11-20T07:25:20;23.00;;;20.23;;
8584;SDS011;7180;52.742;11.420;2022-11-20T07:27:45;21.43;;;19.13;;
8584;SDS011;7180;52.742;11.420;2022-11-20T07:30:11;22.80;;;20.57;;
8584;SDS011;7180;52.742;11.420;2022-11-20T07:32:36;20.23;;;18.23;;
8584;SDS011;7180;52.742;11.420;2022-11-20T07:35:01;21.87;;;19.57;;
8584;SDS011;7180;52.742;11.420;2022-11-20T07:37:27;21.13;;;18.93;;
8584;SDS011;7180;52.742;11.420;2022-11-20T07:39:52;20.77;;;18.57;;
8584;SDS011;7180;52.742;11.420;2022-11-20T07:42:17;20.70;;;18.70;;
8584;SDS011;7180;52.742;11.420;2022-11-20T07:44:42;21.07;;;18.87;;
8584;SDS011;7180;52.742;11.420;2022-11-20T07:47:07;20.93;;;18.87;;
8584;SDS011;7180;52.742;11.420;2022-11-20T07:49:32;21.57;;;19.47;;
8584;SDS011;7180;52.742;11.420;2022-11-20T07:51:58;20.33;;;18.17;;
8584;SDS011;7180;52.742;11.420;2022-11-20T07:54:23;21.17;;;18.97;;
8584;SDS011;7180;52.742;11.420;2022-11-20T07:56:48;21.50;;;19.33;;
8584;SDS011;7180;52.742;11.420;2022-11-20T07:59:14;21.03;;;18.83;;
8584;SDS011;7180;52.742;11.420;2022-11-20T08:01:39;20.73;;;18.53;;
8584;SDS011;7180;52.742;11.420;2022-11-20T08:04:05;21.33;;;19.03;;
8584;SDS011;7180;52.742;11.420;2022-11-20T08:06:30;21.17;;;19.13;;
8584;SDS011;7180;52.742;11.420;2022-11-20T08:08:55;19.87;;;17.87;;
8584;SDS011;7180;52.742;11.420;2022-11-20T08:11:20;19.83;;;17.93;;
8584;SDS011;7180;52.742;11.420;2022-11-20T08:14:05;20.80;;;18.70;;
8584;SDS011;7180;52.742;11.420;2022-11-20T08:19:04;21.93;;;19.53;;
8584;SDS011;7180;52.742;11.420;2022-11-20T08:21:30;22.17;;;19.80;;
8584;SDS011;7180;52.742;11.420;2022-11-20T08:23:55;20.77;;;18.67;;
8584;SDS011;7180;52.742;11.420;2022-11-20T08:26:21;20.90;;;18.80;;
8584;SDS011;7180;52.742;11.420;2022-11-20T08:28:47;19.97;;;17.97;;
8584;SDS011;7180;52.742;11.420;2022-11-20T08:31:12;21.90;;;19.60;;
8584;SDS011;7180;52.742;11.420;2022-11-20T08:33:37;21.53;;;18.80;;
8584;SDS011;7180;52.742;11.420;2022-11-20T08:36:03;23.93;;;19.80;;
8584;SDS011;7180;52.742;11.420;2022-11-20T08:38:29;21.07;;;18.97;;
8584;SDS011;7180;52.742;11.420;2022-11-20T08:40:58;22.27;;;19.77;;
8584;SDS011;7180;52.742;11.420;2022-11-20T08:43:41;23.07;;;19.57;;
8584;SDS011;7180;52.742;11.420;2022-11-20T08:46:07;25.53;;;21.03;;
8584;SDS011;7180;52.742;11.420;2022-11-20T08:48:32;23.90;;;21.23;;
8584;SDS011;7180;52.742;11.420;2022-11-20T08:50:58;20.93;;;18.83;;
8584;SDS011;7180;52.742;11.420;2022-11-20T08:53:23;22.73;;;20.07;;
8584;SDS011;7180;52.742;11.420;2022-11-20T08:55:48;22.17;;;19.77;;
8584;SDS011;7180;52.742;11.420;2022-11-20T08:58:13;21.20;;;18.97;;
8584;SDS011;7180;52.742;11.420;2022-11-20T09:00:39;23.47;;;20.97;;
8584;SDS011;7180;52.742;11.420;2022-11-20T09:03:04;36.17;;;27.77;;
8584;SDS011;7180;52.742;11.420;2022-11-20T09:05:29;33.47;;;26.63;;
8584;SDS011;7180;52.742;11.420;2022-11-20T09:07:57;24.43;;;20.40;;
8584;SDS011;7180;52.742;11.420;2022-11-20T09:10:22;23.77;;;19.87;;
8584;SDS011;7180;52.742;11.420;2022-11-20T09:12:48;23.93;;;20.70;;
8584;SDS011;7180;52.742;11.420;2022-11-20T09:15:13;32.20;;;24.20;;
8584;SDS011;7180;52.742;11.420;2022-11-20T09:17:38;29.47;;;23.10;;
8584;SDS011;7180;52.742;11.420;2022-11-20T09:20:04;29.67;;;23.00;;
8584;SDS011;7180;52.742;11.420;2022-11-20T09:22:29;25.70;;;20.00;;
8584;SDS011;7180;52.742;11.420;2022-11-20T09:24:54;26.67;;;21.03;;
8584;SDS011;7180;52.742;11.420;2022-11-20T09:27:19;28.80;;;23.60;;
8584;SDS011;7180;52.742;11.420;2022-11-20T09:29:48;23.30;;;20.80;;
8584;SDS011;7180;52.742;11.420;2022-11-20T09:32:13;32.03;;;23.57;;
8584;SDS011;7180;52.742;11.420;2022-11-20T09:34:38;26.90;;;21.87;;
8584;SDS011;7180;52.742;11.420;2022-11-20T09:37:03;38.70;;;30.57;;
8584;SDS011;7180;52.742;11.420;2022-11-20T09:39:28;43.27;;;31.73;;
8584;SDS011;7180;52.742;11.420;2022-11-20T09:47:30;22.90;;;19.90;;
8584;SDS011;7180;52.742;11.420;2022-11-20T09:50:02;37.70;;;28.67;;
8584;SDS011;7180;52.742;11.420;2022-11-20T09:55:08;36.27;;;26.83;;
8584;SDS011;7180;52.742;11.420;2022-11-20T09:57:35;32.10;;;22.17;;
8584;SDS011;7180;52.742;11.420;2022-11-20T10:00:01;21.73;;;19.33;;
8584;SDS011;7180;52.742;11.420;2022-11-20T10:02:39;25.23;;;21.07;;
8584;SDS011;7180;52.742;11.420;2022-11-20T10:05:19;53.07;;;34.67;;
8584;SDS011;7180;52.742;11.420;2022-11-20T10:07:53;24.67;;;20.97;;
8584;SDS011;7180;52.742;11.420;2022-11-20T10:10:28;21.27;;;19.07;;
8584;SDS011;7180;52.742;11.420;2022-11-20T10:13:11;19.90;;;17.20;;
8584;SDS011;7180;52.742;11.420;2022-11-20T10:15:43;20.50;;;18.33;;
8584;SDS011;7180;52.742;11.420;2022-11-20T10:18:16;20.17;;;17.00;;
8584;SDS011;7180;52.742;11.420;2022-11-20T10:20:52;19.00;;;17.10;;
8584;SDS011;7180;52.742;11.420;2022-11-20T10:23:26;18.53;;;16.60;;
8584;SDS011;7180;52.742;11.420;2022-11-20T10:31:07;25.00;;;19.57;;
8584;SDS011;7180;52.742;11.420;2022-11-20T10:33:39;24.67;;;21.37;;
8584;SDS011;7180;52.742;11.420;2022-11-20T10:36:08;21.33;;;19.07;;
8584;SDS011;7180;52.742;11.420;2022-11-20T10:41:22;19.07;;;17.17;;
8584;SDS011;7180;52.742;11.420;2022-11-20T10:43:53;17.40;;;15.77;;
8584;SDS011;7180;52.742;11.420;2022-11-20T10:46:23;17.03;;;15.33;;
8584;SDS011;7180;52.742;11.420;2022-11-20T10:48:50;16.87;;;15.17;;
8584;SDS011;7180;52.742;11.420;2022-11-20T10:53:58;15.90;;;14.50;;
8584;SDS011;7180;52.742;11.420;2022-11-20T10:56:38;18.37;;;16.57;;
8584;SDS011;7180;52.742;11.420;2022-11-20T11:01:46;15.70;;;14.10;;
8584;SDS011;7180;52.742;11.420;2022-11-20T11:04:19;17.27;;;15.67;;
8584;SDS011;7180;52.742;11.420;2022-11-20T11:06:48;16.83;;;15.33;;
8584;SDS011;7180;52.742;11.420;2022-11-20T11:09:16;14.97;;;13.57;;
8584;SDS011;7180;52.742;11.420;2022-11-20T11:11:42;15.40;;;13.83;;
8584;SDS011;7180;52.742;11.420;2022-11-20T11:14:08;15.17;;;13.87;;
8584;SDS011;7180;52.742;11.420;2022-11-20T11:16:33;15.63;;;13.97;;
8584;SDS011;7180;52.742;11.420;2022-11-20T11:19:05;15.67;;;14.20;;
8584;SDS011;7180;52.742;11.420;2022-11-20T11:21:30;17.33;;;15.83;;
8584;SDS011;7180;52.742;11.420;2022-11-20T11:24:03;14.10;;;12.90;;
8584;SDS011;7180;52.742;11.420;2022-11-20T11:26:28;13.23;;;11.93;;
8584;SDS011;7180;52.742;11.420;2022-11-20T11:28:57;14.10;;;12.77;;
8584;SDS011;7180;52.742;11.420;2022-11-20T11:31:30;14.73;;;13.43;;
8584;SDS011;7180;52.742;11.420;2022-11-20T11:34:12;14.50;;;13.13;;
8584;SDS011;7180;52.742;11.420;2022-11-20T11:36:37;13.33;;;12.13;;
8584;SDS011;7180;52.742;11.420;2022-11-20T11:39:03;15.33;;;13.93;;
8584;SDS011;7180;52.742;11.420;2022-11-20T11:41:31;14.37;;;13.07;;
8584;SDS011;7180;52.742;11.420;2022-11-20T11:44:00;14.67;;;13.37;;
8584;SDS011;7180;52.742;11.420;2022-11-20T11:46:49;14.93;;;13.63;;
8584;SDS011;7180;52.742;11.420;2022-11-20T11:49:17;14.80;;;13.50;;
8584;SDS011;7180;52.742;11.420;2022-11-20T11:54:14;14.23;;;12.93;;
8584;SDS011;7180;52.742;11.420;2022-11-20T11:56:40;14.97;;;13.53;;
8584;SDS011;7180;52.742;11.420;2022-11-20T11:59:06;15.57;;;14.07;;
8584;SDS011;7180;52.742;11.420;2022-11-20T12:01:42;14.23;;;12.93;;
8584;SDS011;7180;52.742;11.420;2022-11-20T12:04:36;14.03;;;12.77;;
8584;SDS011;7180;52.742;11.420;2022-11-20T12:09:54;14.60;;;13.27;;
8584;SDS011;7180;52.742;11.420;2022-11-20T12:12:20;14.67;;;13.37;;
8584;SDS011;7180;52.742;11.420;2022-11-20T12:14:47;15.33;;;14.00;;
8584;SDS011;7180;52.742;11.420;2022-11-20T12:17:14;15.13;;;13.70;;
8584;SDS011;7180;52.742;11.420;2022-11-20T12:19:40;16.27;;;14.50;;
8584;SDS011;7180;52.742;11.420;2022-11-20T12:24:52;16.90;;;15.40;;
8584;SDS011;7180;52.742;11.420;2022-11-20T12:30:07;14.20;;;12.80;;
8584;SDS011;7180;52.742;11.420;2022-11-20T12:54:04;19.23;;;17.33;;
8584;SDS011;7180;52.742;11.420;2022-11-20T12:56:44;18.13;;;16.50;;
8584;SDS011;7180;52.742;11.420;2022-11-20T13:01:40;15.87;;;14.47;;
8584;SDS011;7180;52.742;11.420;2022-11-20T13:04:23;23.90;;;21.50;;
8584;SDS011;7180;52.742;11.420;2022-11-20T13:06:57;21.30;;;19.20;;
8584;SDS011;7180;52.742;11.420;2022-11-20T13:09:23;16.57;;;15.00;;
8584;SDS011;7180;52.742;11.420;2022-11-20T13:14:34;15.03;;;13.67;;
8584;SDS011;7180;52.742;11.420;2022-11-20T13:17:08;15.60;;;14.23;;
8584;SDS011;7180;52.742;11.420;2022-11-20T13:19:35;15.60;;;14.07;;
8584;SDS011;7180;52.742;11.420;2022-11-20T13:22:00;15.30;;;13.80;;
8584;SDS011;7180;52.742;11.420;2022-11-20T13:24:26;16.90;;;15.50;;
8584;SDS011;7180;52.742;11.420;2022-11-20T13:27:16;17.57;;;15.93;;
8584;SDS011;7180;52.742;11.420;2022-11-20T13:30:17;17.37;;;15.67;;
8584;SDS011;7180;52.742;11.420;2022-11-20T13:32:34;15.60;;;14.10;;
8584;SDS011;7180;52.742;11.420;2022-11-20T13:35:00;16.17;;;14.77;;
8584;SDS011;7180;52.742;11.420;2022-11-20T13:37:29;15.53;;;14.23;;
8584;SDS011;7180;52.742;11.420;2022-11-20T13:40:05;15.57;;;14.27;;
8584;SDS011;7180;52.742;11.420;2022-11-20T13:42:30;16.60;;;14.93;;
8584;SDS011;7180;52.742;11.420;2022-11-20T13:45:00;66.30;;;29.57;;
8584;SDS011;7180;52.742;11.420;2022-11-20T13:47:26;16.47;;;14.73;;
8584;SDS011;7180;52.742;11.420;2022-11-20T13:49:52;19.07;;;17.27;;
8584;SDS011;7180;52.742;11.420;2022-11-20T13:57:49;31.40;;;24.37;;
8584;SDS011;7180;52.742;11.420;2022-11-20T14:00:18;19.33;;;17.33;;
8584;SDS011;7180;52.742;11.420;2022-11-20T14:02:45;21.10;;;18.87;;
8584;SDS011;7180;52.742;11.420;2022-11-20T14:05:19;15.93;;;14.43;;
8584;SDS011;7180;52.742;11.420;2022-11-20T14:07:45;16.17;;;14.73;;
8584;SDS011;7180;52.742;11.420;2022-11-20T14:10:27;18.97;;;17.17;;
8584;SDS011;7180;52.742;11.420;2022-11-20T14:12:53;18.43;;;16.73;;
8584;SDS011;7180;52.742;11.420;2022-11-20T14:15:25;19.17;;;17.30;;
8584;SDS011;7180;52.742;11.420;2022-11-20T14:17:51;21.30;;;19.20;;
8584;SDS011;7180;52.742;11.420;2022-11-20T14:20:16;21.60;;;19.27;;
8584;SDS011;7180;52.742;11.420;2022-11-20T14:22:48;21.43;;;19.13;;
8584;SDS011;7180;52.742;11.420;2022-11-20T14:27:41;38.97;;;27.50;;
8584;SDS011;7180;52.742;11.420;2022-11-20T14:30:16;28.43;;;24.60;;
8584;SDS011;7180;52.742;11.420;2022-11-20T14:32:42;24.50;;;22.00;;
8584;SDS011;7180;52.742;11.420;2022-11-20T14:35:08;22.73;;;19.60;;
8584;SDS011;7180;52.742;11.420;2022-11-20T14:37:36;39.87;;;30.60;;
8584;SDS011;7180;52.742;11.420;2022-11-20T14:40:02;31.63;;;27.07;;
8584;SDS011;7180;52.742;11.420;2022-11-20T14:42:28;26.07;;;22.63;;
8584;SDS011;7180;52.742;11.420;2022-11-20T14:44:57;22.87;;;19.20;;
8584;SDS011;7180;52.742;11.420;2022-11-20T14:47:23;20.13;;;18.33;;
8584;SDS011;7180;52.742;11.420;2022-11-20T14:49:50;19.47;;;17.77;;
8584;SDS011;7180;52.742;11.420;2022-11-20T14:52:17;20.00;;;18.00;;
8584;SDS011;7180;52.742;11.420;2022-11-20T14:57:19;34.23;;;23.97;;
8584;SDS011;7180;52.742;11.420;2022-11-20T14:59:45;33.53;;;23.07;;
8584;SDS011;7180;52.742;11.420;2022-11-20T15:02:11;44.47;;;26.57;;
8584;SDS011;7180;52.742;11.420;2022-11-20T15:04:49;34.83;;;23.40;;
8584;SDS011;7180;52.742;11.420;2022-11-20T15:07:28;44.30;;;27.93;;
8584;SDS011;7180;52.742;11.420;2022-11-20T15:10:03;52.50;;;28.93;;
8584;SDS011;7180;52.742;11.420;2022-11-20T15:12:30;29.43;;;21.50;;
8584;SDS011;7180;52.742;11.420;2022-11-20T15:14:55;24.80;;;20.90;;
8584;SDS011;7180;52.742;11.420;2022-11-20T15:17:21;20.90;;;18.50;;
8584;SDS011;7180;52.742;11.420;2022-11-20T15:19:46;19.50;;;17.50;;
8584;SDS011;7180;52.742;11.420;2022-11-20T15:22:11;18.97;;;16.63;;
8584;SDS011;7180;52.742;11.420;2022-11-20T15:24:38;19.80;;;17.80;;
8584;SDS011;7180;52.742;11.420;2022-11-20T15:27:03;17.60;;;15.90;;
8584;SDS011;7180;52.742;11.420;2022-11-20T15:29:28;17.93;;;16.23;;
8584;SDS011;7180;52.742;11.420;2022-11-20T15:31:53;17.63;;;16.13;;
8584;SDS011;7180;52.742;11.420;2022-11-20T15:34:19;17.57;;;15.87;;
8584;SDS011;7180;52.742;11.420;2022-11-20T15:36:44;18.00;;;16.10;;
8584;SDS011;7180;52.742;11.420;2022-11-20T15:39:10;16.43;;;15.03;;
8584;SDS011;7180;52.742;11.420;2022-11-20T15:41:36;17.20;;;15.60;;
8584;SDS011;7180;52.742;11.420;2022-11-20T15:44:02;16.67;;;14.97;;
8584;SDS011;7180;52.742;11.420;2022-11-20T15:46:28;18.20;;;15.67;;
8584;SDS011;7180;52.742;11.420;2022-11-20T15:48:54;16.80;;;15.00;;
8584;SDS011;7180;52.742;11.420;2022-11-20T15:51:29;17.60;;;15.80;;
8584;SDS011;7180;52.742;11.420;2022-11-20T15:53:55;17.03;;;15.33;;